createdAt,value
2018-10-19T00:00:52.671Z,1008.53
2018-10-19T00:01:52.662Z,1008.53
2018-10-19T00:02:52.654Z,1008.50
2018-10-19T00:03:52.639Z,1008.55
2018-10-19T00:04:52.633Z,1008.48
2018-10-19T00:05:52.618Z,1008.48
2018-10-19T00:06:52.607Z,1008.47
2018-10-19T00:07:52.599Z,1008.48
2018-10-19T00:08:52.636Z,1008.49
2018-10-19T00:09:52.575Z,1008.45
2018-10-19T00:10:52.572Z,1008.41
2018-10-19T00:11:52.551Z,1008.48
2018-10-19T00:12:52.620Z,1008.43
2018-10-19T00:13:52.532Z,1008.43
2018-10-19T00:14:52.523Z,1008.39
2018-10-19T00:15:52.507Z,1008.38
2018-10-19T00:16:52.506Z,1008.44
2018-10-19T00:17:52.494Z,1008.36
2018-10-19T00:18:52.483Z,1008.34
2018-10-19T00:19:52.466Z,1008.34
2018-10-19T00:20:52.459Z,1008.30
2018-10-19T00:21:52.445Z,1008.27
2018-10-19T00:22:52.435Z,1008.31
2018-10-19T00:23:52.423Z,1008.27
2018-10-19T00:24:52.410Z,1008.32
2018-10-19T00:25:52.401Z,1008.23
2018-10-19T00:26:52.414Z,1008.33
2018-10-19T00:27:52.378Z,1008.28
2018-10-19T00:28:52.377Z,1008.31
2018-10-19T00:29:52.357Z,1008.27
2018-10-19T00:30:52.345Z,1008.33
2018-10-19T00:31:52.335Z,1008.35
2018-10-19T00:32:52.347Z,1008.35
2018-10-19T00:33:52.314Z,1008.31
2018-10-19T00:34:52.305Z,1008.35
2018-10-19T00:35:52.292Z,1008.34
2018-10-19T00:36:52.366Z,1008.34
2018-10-19T00:37:52.273Z,1008.37
2018-10-19T00:38:52.305Z,1008.37
2018-10-19T00:39:52.248Z,1008.38
2018-10-19T00:40:52.256Z,1008.34
2018-10-19T00:41:52.225Z,1008.38
2018-10-19T00:42:52.218Z,1008.39
2018-10-19T00:43:52.211Z,1008.39
2018-10-19T00:44:52.199Z,1008.40
2018-10-19T00:45:52.182Z,1008.38
2018-10-19T00:46:52.191Z,1008.40
2018-10-19T00:47:52.167Z,1008.36
2018-10-19T00:48:52.150Z,1008.37
2018-10-19T00:49:52.139Z,1008.29
2018-10-19T00:50:52.173Z,1008.28
2018-10-19T00:51:52.119Z,1008.33
2018-10-19T00:52:52.141Z,1008.33
2018-10-19T00:53:52.096Z,1008.32
2018-10-19T00:54:52.086Z,1008.28
2018-10-19T00:55:52.079Z,1008.29
2018-10-19T00:56:52.067Z,1008.30
2018-10-19T00:57:52.052Z,1008.28
2018-10-19T00:58:52.087Z,1008.22
2018-10-19T00:59:52.033Z,1008.24
2018-10-19T01:00:52.023Z,1008.24
2018-10-19T01:01:52.008Z,1008.20
2018-10-19T01:02:52.011Z,1008.18
2018-10-19T01:03:51.988Z,1008.19
2018-10-19T01:04:52.009Z,1008.15
2018-10-19T01:05:51.966Z,1008.19
2018-10-19T01:06:51.954Z,1008.18
2018-10-19T01:07:51.946Z,1008.19
2018-10-19T01:08:51.947Z,1008.19
2018-10-19T01:09:51.921Z,1008.19
2018-10-19T01:10:51.913Z,1008.20
2018-10-19T01:11:51.901Z,1008.17
2018-10-19T01:12:51.891Z,1008.18
2018-10-19T01:13:51.881Z,1008.16
2018-10-19T01:14:51.926Z,1008.18
2018-10-19T01:15:51.858Z,1008.21
2018-10-19T01:16:51.879Z,1008.24
2018-10-19T01:17:51.839Z,1008.18
2018-10-19T01:18:51.827Z,1008.21
2018-10-19T01:19:51.814Z,1008.16
2018-10-19T01:20:51.846Z,1008.13
2018-10-19T01:21:51.793Z,1008.22
2018-10-19T01:22:51.783Z,1008.17
2018-10-19T01:23:51.781Z,1008.19
2018-10-19T01:24:51.760Z,1008.25
2018-10-19T01:25:51.749Z,1008.14
2018-10-19T01:26:51.739Z,1008.17
2018-10-19T01:27:51.732Z,1008.23
2018-10-19T01:28:51.716Z,1008.18
2018-10-19T01:29:51.706Z,1008.20
2018-10-19T01:30:51.693Z,1008.17
2018-10-19T01:31:51.685Z,1008.18
2018-10-19T01:32:51.674Z,1008.22
2018-10-19T01:33:51.665Z,1008.22
2018-10-19T01:34:51.653Z,1008.16
2018-10-19T01:35:51.639Z,1008.19
2018-10-19T01:36:51.631Z,1008.18
2018-10-19T01:37:51.619Z,1008.15
2018-10-19T01:38:51.607Z,1008.22
2018-10-19T01:39:51.600Z,1008.23
2018-10-19T01:40:51.585Z,1008.20
2018-10-19T01:41:51.577Z,1008.18
2018-10-19T01:42:51.565Z,1008.24
2018-10-19T01:43:51.552Z,1008.27
2018-10-19T01:44:51.543Z,1008.26
2018-10-19T01:45:51.532Z,1008.26
2018-10-19T01:46:51.520Z,1008.27
2018-10-19T01:47:51.508Z,1008.26
2018-10-19T01:48:51.497Z,1008.28
2018-10-19T01:49:51.489Z,1008.28
2018-10-19T01:50:51.479Z,1008.30
2018-10-19T01:51:51.466Z,1008.26
2018-10-19T01:52:51.454Z,1008.26
2018-10-19T01:53:51.445Z,1008.32
2018-10-19T01:54:51.433Z,1008.28
2018-10-19T01:55:51.425Z,1008.29
2018-10-19T01:56:51.413Z,1008.28
2018-10-19T01:57:51.400Z,1008.29
2018-10-19T01:58:51.391Z,1008.29
2018-10-19T01:59:51.379Z,1008.30
2018-10-19T02:00:51.369Z,1008.30
2018-10-19T02:01:51.358Z,1008.32
2018-10-19T02:02:51.345Z,1008.34
2018-10-19T02:03:51.337Z,1008.33
2018-10-19T02:04:51.323Z,1008.37
2018-10-19T02:05:51.314Z,1008.36
2018-10-19T02:06:51.307Z,1008.33
2018-10-19T02:07:51.292Z,1008.38
2018-10-19T02:08:51.281Z,1008.40
2018-10-19T02:09:51.271Z,1008.38
2018-10-19T02:10:51.261Z,1008.38
2018-10-19T02:11:51.250Z,1008.38
2018-10-19T02:12:51.238Z,1008.40
2018-10-19T02:13:51.227Z,1008.39
2018-10-19T02:14:51.224Z,1008.42
2018-10-19T02:15:51.206Z,1008.37
2018-10-19T02:16:51.194Z,1008.42
2018-10-19T02:17:51.185Z,1008.41
2018-10-19T02:18:51.175Z,1008.38
2018-10-19T02:19:51.164Z,1008.47
2018-10-19T02:20:51.151Z,1008.40
2018-10-19T02:21:51.142Z,1008.46
2018-10-19T02:22:51.131Z,1008.42
2018-10-19T02:23:51.118Z,1008.42
2018-10-19T02:24:51.107Z,1008.43
2018-10-19T02:25:51.096Z,1008.46
2018-10-19T02:26:51.087Z,1008.41
2018-10-19T02:27:51.074Z,1008.44
2018-10-19T02:28:51.073Z,1008.43
2018-10-19T02:29:51.053Z,1008.46
2018-10-19T02:30:51.043Z,1008.44
2018-10-19T02:31:51.033Z,1008.45
2018-10-19T02:32:51.021Z,1008.44
2018-10-19T02:33:51.011Z,1008.46
2018-10-19T02:34:50.999Z,1008.46
2018-10-19T02:35:50.990Z,1008.46
2018-10-19T02:36:50.982Z,1008.46
2018-10-19T02:37:50.970Z,1008.46
2018-10-19T02:38:50.955Z,1008.44
2018-10-19T02:39:50.946Z,1008.45
2018-10-19T02:40:50.936Z,1008.44
2018-10-19T02:41:50.929Z,1008.41
2018-10-19T02:42:50.912Z,1008.42
2018-10-19T02:43:50.905Z,1008.37
2018-10-19T02:44:50.891Z,1008.37
2018-10-19T02:45:50.886Z,1008.35
2018-10-19T02:46:50.870Z,1008.39
2018-10-19T02:47:50.866Z,1008.37
2018-10-19T02:48:50.846Z,1008.38
2018-10-19T02:49:50.836Z,1008.35
2018-10-19T02:50:50.825Z,1008.39
2018-10-19T02:51:50.813Z,1008.36
2018-10-19T02:52:50.805Z,1008.34
2018-10-19T02:53:50.798Z,1008.30
2018-10-19T02:54:50.784Z,1008.32
2018-10-19T02:55:50.771Z,1008.34
2018-10-19T02:56:50.760Z,1008.31
2018-10-19T02:57:50.754Z,1008.32
2018-10-19T02:58:50.747Z,1008.33
2018-10-19T02:59:50.730Z,1008.31
2018-10-19T03:00:50.721Z,1008.32
2018-10-19T03:01:50.706Z,1008.35
2018-10-19T03:02:50.697Z,1008.32
2018-10-19T03:03:50.685Z,1008.37
2018-10-19T03:04:50.675Z,1008.38
2018-10-19T03:05:50.663Z,1008.36
2018-10-19T03:06:50.657Z,1008.36
2018-10-19T03:07:50.650Z,1008.29
2018-10-19T03:08:50.631Z,1008.35
2018-10-19T03:09:50.618Z,1008.35
2018-10-19T03:10:50.609Z,1008.36
2018-10-19T03:11:50.597Z,1008.33
2018-10-19T03:12:50.586Z,1008.33
2018-10-19T03:13:50.579Z,1008.33
2018-10-19T03:14:50.574Z,1008.32
2018-10-19T03:15:50.556Z,1008.35
2018-10-19T03:16:50.545Z,1008.35
2018-10-19T03:17:50.531Z,1008.37
2018-10-19T03:18:50.521Z,1008.40
2018-10-19T03:19:50.511Z,1008.36
2018-10-19T03:20:50.499Z,1008.36
2018-10-19T03:21:50.489Z,1008.40
2018-10-19T03:22:50.477Z,1008.37
2018-10-19T03:23:50.468Z,1008.35
2018-10-19T03:24:50.458Z,1008.40
2018-10-19T03:25:50.446Z,1008.39
2018-10-19T03:26:50.435Z,1008.35
2018-10-19T03:27:50.429Z,1008.40
2018-10-19T03:28:50.413Z,1008.43
2018-10-19T03:29:50.402Z,1008.37
2018-10-19T03:30:50.438Z,1008.37
2018-10-19T03:31:50.380Z,1008.44
2018-10-19T03:32:50.373Z,1008.35
2018-10-19T03:33:50.361Z,1008.38
2018-10-19T03:34:50.348Z,1008.34
2018-10-19T03:35:50.336Z,1008.32
2018-10-19T03:36:50.329Z,1008.36
2018-10-19T03:37:50.316Z,1008.44
2018-10-19T03:38:50.305Z,1008.42
2018-10-19T03:39:50.294Z,1008.35
2018-10-19T03:40:50.281Z,1008.40
2018-10-19T03:41:50.271Z,1008.41
2018-10-19T03:42:50.259Z,1008.41
2018-10-19T03:43:50.248Z,1008.42
2018-10-19T03:44:50.240Z,1008.41
2018-10-19T03:45:50.227Z,1008.46
2018-10-19T03:46:50.220Z,1008.43
2018-10-19T03:47:50.205Z,1008.39
2018-10-19T03:48:50.197Z,1008.42
2018-10-19T03:49:50.187Z,1008.39
2018-10-19T03:50:50.174Z,1008.39
2018-10-19T03:51:50.164Z,1008.39
2018-10-19T03:52:50.152Z,1008.40
2018-10-19T03:53:50.143Z,1008.41
2018-10-19T03:54:50.132Z,1008.35
2018-10-19T03:55:50.119Z,1008.36
2018-10-19T03:56:50.109Z,1008.38
2018-10-19T03:57:50.100Z,1008.41
2018-10-19T03:58:50.088Z,1008.41
2018-10-19T03:59:50.078Z,1008.40
2018-10-19T04:00:50.065Z,1008.41
2018-10-19T04:01:50.055Z,1008.39
2018-10-19T04:02:50.044Z,1008.39
2018-10-19T04:03:50.033Z,1008.42
2018-10-19T04:04:50.025Z,1008.40
2018-10-19T04:05:50.013Z,1008.44
2018-10-19T04:06:50.007Z,1008.47
2018-10-19T04:07:49.992Z,1008.42
2018-10-19T04:08:49.985Z,1008.44
2018-10-19T04:09:49.969Z,1008.43
2018-10-19T04:10:49.960Z,1008.47
2018-10-19T04:11:49.952Z,1008.47
2018-10-19T04:12:49.941Z,1008.45
2018-10-19T04:13:49.925Z,1008.48
2018-10-19T04:14:49.916Z,1008.47
2018-10-19T04:15:49.905Z,1008.45
2018-10-19T04:16:49.894Z,1008.46
2018-10-19T04:17:49.883Z,1008.49
2018-10-19T04:18:49.871Z,1008.48
2018-10-19T04:19:49.862Z,1008.46
2018-10-19T04:20:49.850Z,1008.47
2018-10-19T04:21:49.840Z,1008.50
2018-10-19T04:22:49.829Z,1008.48
2018-10-19T04:23:49.818Z,1008.47
2018-10-19T04:24:49.807Z,1008.43
2018-10-19T04:25:49.795Z,1008.42
2018-10-19T04:26:49.792Z,1008.46
2018-10-19T04:27:49.773Z,1008.43
2018-10-19T04:28:49.763Z,1008.46
2018-10-19T04:29:49.753Z,1008.44
2018-10-19T04:30:49.742Z,1008.46
2018-10-19T04:31:49.731Z,1008.47
2018-10-19T04:32:49.721Z,1008.47
2018-10-19T04:33:49.707Z,1008.57
2018-10-19T04:34:49.698Z,1008.55
2018-10-19T04:35:49.689Z,1008.59
2018-10-19T04:36:49.676Z,1008.54
2018-10-19T04:37:49.665Z,1008.51
2018-10-19T04:38:49.660Z,1008.59
2018-10-19T04:39:49.644Z,1008.60
2018-10-19T04:40:49.635Z,1008.53
2018-10-19T04:41:49.681Z,1008.54
2018-10-19T04:42:49.610Z,1008.51
2018-10-19T04:43:49.599Z,1008.53
2018-10-19T04:44:49.589Z,1008.58
2018-10-19T04:45:49.578Z,1008.57
2018-10-19T04:46:49.568Z,1008.61
2018-10-19T04:47:49.725Z,1008.62
2018-10-19T04:48:49.547Z,1008.65
2018-10-19T04:49:49.534Z,1008.61
2018-10-19T04:50:49.526Z,1008.54
2018-10-19T04:51:49.515Z,1008.62
2018-10-19T04:52:49.501Z,1008.61
2018-10-19T04:53:49.598Z,1008.55
2018-10-19T04:54:49.483Z,1008.62
2018-10-19T04:55:49.470Z,1008.61
2018-10-19T04:56:49.459Z,1008.66
2018-10-19T04:57:49.449Z,1008.62
2018-10-19T04:58:49.439Z,1008.61
2018-10-19T04:59:49.428Z,1008.59
2018-10-19T05:00:49.416Z,1008.65
2018-10-19T05:01:49.406Z,1008.65
2018-10-19T05:02:49.436Z,1008.67
2018-10-19T05:03:49.384Z,1008.63
2018-10-19T05:04:49.501Z,1008.69
2018-10-19T05:05:49.443Z,1008.66
2018-10-19T05:06:49.551Z,1008.64
2018-10-19T05:07:49.339Z,1008.66
2018-10-19T05:08:49.328Z,1008.66
2018-10-19T05:09:49.317Z,1008.63
2018-10-19T05:10:49.307Z,1008.67
2018-10-19T05:11:49.295Z,1008.67
2018-10-19T05:12:49.289Z,1008.71
2018-10-19T05:13:49.275Z,1008.68
2018-10-19T05:14:49.263Z,1008.68
2018-10-19T05:15:49.254Z,1008.68
2018-10-19T05:16:49.242Z,1008.69
2018-10-19T05:17:49.229Z,1008.70
2018-10-19T05:18:49.227Z,1008.72
2018-10-19T05:19:49.209Z,1008.73
2018-10-19T05:20:49.200Z,1008.72
2018-10-19T05:21:49.185Z,1008.77
2018-10-19T05:22:49.218Z,1008.78
2018-10-19T05:23:49.167Z,1008.80
2018-10-19T05:24:49.327Z,1008.81
2018-10-19T05:25:49.144Z,1008.85
2018-10-19T05:26:49.134Z,1008.84
2018-10-19T05:27:49.124Z,1008.85
2018-10-19T05:28:49.111Z,1008.87
2018-10-19T05:29:49.098Z,1008.82
2018-10-19T05:30:49.090Z,1008.83
2018-10-19T05:31:49.079Z,1008.85
2018-10-19T05:32:49.073Z,1008.85
2018-10-19T05:33:49.057Z,1008.79
2018-10-19T05:34:49.044Z,1008.86
2018-10-19T05:35:49.038Z,1008.88
2018-10-19T05:36:49.024Z,1008.88
2018-10-19T05:37:49.013Z,1008.87
2018-10-19T05:38:49.001Z,1008.86
2018-10-19T05:39:48.991Z,1008.90
2018-10-19T05:40:48.980Z,1008.90
2018-10-19T05:41:48.971Z,1008.87
2018-10-19T05:42:48.964Z,1008.86
2018-10-19T05:43:48.947Z,1008.89
2018-10-19T05:44:48.941Z,1008.86
2018-10-19T05:45:48.926Z,1008.86
2018-10-19T05:46:48.915Z,1008.87
2018-10-19T05:47:48.904Z,1008.87
2018-10-19T05:48:48.893Z,1008.84
2018-10-19T05:49:48.883Z,1008.85
2018-10-19T05:50:48.873Z,1008.87
2018-10-19T05:51:48.862Z,1008.85
2018-10-19T05:52:48.850Z,1008.87
2018-10-19T05:53:48.839Z,1008.88
2018-10-19T05:54:48.827Z,1008.90
2018-10-19T05:55:48.821Z,1008.87
2018-10-19T05:56:48.808Z,1008.87
2018-10-19T05:57:48.794Z,1008.86
2018-10-19T05:58:48.785Z,1008.85
2018-10-19T05:59:48.775Z,1008.87
2018-10-19T06:00:48.763Z,1008.85
2018-10-19T06:01:48.750Z,1008.88
2018-10-19T06:02:48.743Z,1008.90
2018-10-19T06:03:48.731Z,1008.86
2018-10-19T06:04:48.720Z,1008.87
2018-10-19T06:05:48.710Z,1008.90
2018-10-19T06:06:48.700Z,1008.92
2018-10-19T06:07:48.687Z,1008.92
2018-10-19T06:08:48.676Z,1008.94
2018-10-19T06:09:48.669Z,1008.98
2018-10-19T06:10:48.655Z,1008.94
2018-10-19T06:11:48.643Z,1008.96
2018-10-19T06:12:48.633Z,1008.94
2018-10-19T06:13:48.700Z,1008.97
2018-10-19T06:14:48.609Z,1008.98
2018-10-19T06:15:48.601Z,1008.95
2018-10-19T06:16:48.588Z,1008.96
2018-10-19T06:17:48.581Z,1008.98
2018-10-19T06:18:48.571Z,1009.06
2018-10-19T06:19:48.557Z,1009.06
2018-10-19T06:20:48.548Z,1009.09
2018-10-19T06:21:48.536Z,1009.08
2018-10-19T06:22:48.525Z,1009.06
2018-10-19T06:23:48.515Z,1009.07
2018-10-19T06:24:48.506Z,1009.08
2018-10-19T06:25:48.555Z,1009.07
2018-10-19T06:26:48.490Z,1009.09
2018-10-19T06:27:48.475Z,1009.07
2018-10-19T06:28:48.459Z,1009.09
2018-10-19T06:29:48.447Z,1009.08
2018-10-19T06:30:48.439Z,1009.04
2018-10-19T06:31:48.426Z,1009.11
2018-10-19T06:32:48.423Z,1009.09
2018-10-19T06:33:48.483Z,1009.08
2018-10-19T06:34:48.393Z,1009.14
2018-10-19T06:35:48.381Z,1009.14
2018-10-19T06:36:48.371Z,1009.10
2018-10-19T06:37:48.360Z,1009.13
2018-10-19T06:38:48.351Z,1009.15
2018-10-19T06:39:48.340Z,1009.17
2018-10-19T06:40:48.344Z,1009.17
2018-10-19T06:41:48.321Z,1009.16
2018-10-19T06:42:48.306Z,1009.14
2018-10-19T06:43:48.303Z,1009.12
2018-10-19T06:44:48.285Z,1009.08
2018-10-19T06:45:48.274Z,1009.17
2018-10-19T06:46:48.339Z,1009.13
2018-10-19T06:47:48.252Z,1009.16
2018-10-19T06:48:48.284Z,1009.18
2018-10-19T06:49:48.230Z,1009.12
2018-10-19T06:50:48.232Z,1009.14
2018-10-19T06:51:48.208Z,1009.14
2018-10-19T06:52:48.198Z,1009.13
2018-10-19T06:53:48.189Z,1009.13
2018-10-19T06:54:48.177Z,1009.15
2018-10-19T06:55:48.169Z,1009.11
2018-10-19T06:56:48.157Z,1009.12
2018-10-19T06:57:48.146Z,1009.16
2018-10-19T06:58:48.144Z,1009.14
2018-10-19T06:59:48.122Z,1009.18
2018-10-19T07:00:48.142Z,1009.18
2018-10-19T07:01:48.101Z,1009.17
2018-10-19T07:02:48.102Z,1009.22
2018-10-19T07:03:48.082Z,1009.21
2018-10-19T07:04:48.069Z,1009.23
2018-10-19T07:05:48.137Z,1009.22
2018-10-19T07:06:48.049Z,1009.17
2018-10-19T07:07:48.056Z,1009.17
2018-10-19T07:08:48.026Z,1009.18
2018-10-19T07:09:48.015Z,1009.17
2018-10-19T07:10:48.003Z,1009.17
2018-10-19T07:11:47.994Z,1009.19
2018-10-19T07:12:47.983Z,1009.19
2018-10-19T07:13:47.988Z,1009.19
2018-10-19T07:14:48.104Z,1009.13
2018-10-19T07:15:49.026Z,1009.17
2018-10-19T07:16:48.091Z,1009.11
2018-10-19T07:17:48.010Z,1009.12
2018-10-19T07:18:47.930Z,1009.16
2018-10-19T07:19:47.908Z,1009.18
2018-10-19T07:20:47.900Z,1009.22
2018-10-19T07:21:48.084Z,1009.14
2018-10-19T07:22:48.164Z,1009.21
2018-10-19T07:23:48.892Z,1009.24
2018-10-19T07:24:48.002Z,1009.20
2018-10-19T07:25:47.843Z,1009.22
2018-10-19T07:26:47.832Z,1009.23
2018-10-19T07:27:47.821Z,1009.21
2018-10-19T07:28:47.812Z,1009.20
2018-10-19T07:29:47.800Z,1009.21
2018-10-19T07:30:47.797Z,1009.19
2018-10-19T07:31:47.782Z,1009.19
2018-10-19T07:32:47.767Z,1009.21
2018-10-19T07:33:47.756Z,1009.20
2018-10-19T07:34:47.784Z,1009.22
2018-10-19T07:35:47.736Z,1009.20
2018-10-19T07:36:47.748Z,1009.30
2018-10-19T07:37:47.729Z,1009.26
2018-10-19T07:38:47.759Z,1009.28
2018-10-19T07:39:47.696Z,1009.33
2018-10-19T07:40:47.683Z,1009.36
2018-10-19T07:41:47.673Z,1009.28
2018-10-19T07:42:47.660Z,1009.34
2018-10-19T07:43:47.649Z,1009.28
2018-10-19T07:44:47.640Z,1009.29
2018-10-19T07:45:47.629Z,1009.28
2018-10-19T07:46:47.615Z,1009.30
2018-10-19T07:47:47.779Z,1009.26
2018-10-19T07:48:47.596Z,1009.25
2018-10-19T07:49:47.584Z,1009.28
2018-10-19T07:50:47.574Z,1009.30
2018-10-19T07:51:47.562Z,1009.26
2018-10-19T07:52:47.565Z,1009.31
2018-10-19T07:53:47.541Z,1009.28
2018-10-19T07:54:47.530Z,1009.33
2018-10-19T07:55:47.524Z,1009.38
2018-10-19T07:56:47.510Z,1009.35
2018-10-19T07:57:47.498Z,1009.38
2018-10-19T07:58:47.487Z,1009.41
2018-10-19T07:59:47.476Z,1009.36
2018-10-19T08:00:47.516Z,1009.33
2018-10-19T08:01:47.455Z,1009.35
2018-10-19T08:02:47.450Z,1009.41
2018-10-19T08:03:47.433Z,1009.44
2018-10-19T08:04:47.424Z,1009.42
2018-10-19T08:05:47.412Z,1009.46
2018-10-19T08:06:47.400Z,1009.45
2018-10-19T08:07:47.390Z,1009.44
2018-10-19T08:08:47.381Z,1009.44
2018-10-19T08:09:47.372Z,1009.40
2018-10-19T08:10:47.357Z,1009.44
2018-10-19T08:11:47.354Z,1009.38
2018-10-19T08:12:47.334Z,1009.39
2018-10-19T08:13:47.326Z,1009.44
2018-10-19T08:14:47.314Z,1009.48
2018-10-19T08:15:47.304Z,1009.47
2018-10-19T08:16:47.300Z,1009.46
2018-10-19T08:17:47.282Z,1009.47
2018-10-19T08:18:47.272Z,1009.52
2018-10-19T08:19:47.265Z,1009.44
2018-10-19T08:20:47.258Z,1009.47
2018-10-19T08:21:47.240Z,1009.49
2018-10-19T08:22:47.230Z,1009.45
2018-10-19T08:23:47.227Z,1009.42
2018-10-19T08:24:47.205Z,1009.43
2018-10-19T08:25:47.195Z,1009.46
2018-10-19T08:26:47.186Z,1009.46
2018-10-19T08:27:47.173Z,1009.51
2018-10-19T08:28:47.164Z,1009.49
2018-10-19T08:29:47.153Z,1009.50
2018-10-19T08:30:47.140Z,1009.50
2018-10-19T08:31:47.132Z,1009.52
2018-10-19T08:32:47.126Z,1009.50
2018-10-19T08:33:47.110Z,1009.48
2018-10-19T08:34:47.099Z,1009.50
2018-10-19T08:35:47.088Z,1009.50
2018-10-19T08:36:47.079Z,1009.49
2018-10-19T08:37:47.066Z,1009.49
2018-10-19T08:38:47.053Z,1009.43
2018-10-19T08:39:47.045Z,1009.45
2018-10-19T08:40:47.038Z,1009.46
2018-10-19T08:41:47.050Z,1009.46
2018-10-19T08:42:47.012Z,1009.47
2018-10-19T08:43:47.002Z,1009.49
2018-10-19T08:44:46.990Z,1009.45
2018-10-19T08:45:46.980Z,1009.45
2018-10-19T08:46:46.969Z,1009.48
2018-10-19T08:47:47.002Z,1009.46
2018-10-19T08:48:46.948Z,1009.50
2018-10-19T08:49:46.936Z,1009.45
2018-10-19T08:50:46.926Z,1009.48
2018-10-19T08:51:46.915Z,1009.49
2018-10-19T08:52:46.904Z,1009.41
2018-10-19T08:53:46.920Z,1009.48
2018-10-19T08:54:46.993Z,1009.41
2018-10-19T08:55:46.871Z,1009.44
2018-10-19T08:56:46.860Z,1009.41
2018-10-19T08:57:46.916Z,1009.41
2018-10-19T08:58:46.839Z,1009.43
2018-10-19T08:59:46.934Z,1009.40
2018-10-19T09:00:46.822Z,1009.45
2018-10-19T09:01:46.806Z,1009.42
2018-10-19T09:02:46.808Z,1009.43
2018-10-19T09:03:46.826Z,1009.38
2018-10-19T09:04:46.776Z,1009.41
2018-10-19T09:05:46.764Z,1009.42
2018-10-19T09:06:46.755Z,1009.38
2018-10-19T09:07:46.744Z,1009.39
2018-10-19T09:08:46.732Z,1009.36
2018-10-19T09:09:46.729Z,1009.36
2018-10-19T09:10:46.741Z,1009.39
2018-10-19T09:11:46.752Z,1009.38
2018-10-19T09:12:46.741Z,1009.37
2018-10-19T09:13:46.679Z,1009.39
2018-10-19T09:14:46.668Z,1009.37
2018-10-19T09:15:46.655Z,1009.40
2018-10-19T09:16:46.643Z,1009.37
2018-10-19T09:17:46.633Z,1009.35
2018-10-19T09:18:46.622Z,1009.39
2018-10-19T09:19:46.611Z,1009.34
2018-10-19T09:20:46.600Z,1009.32
2018-10-19T09:21:46.589Z,1009.35
2018-10-19T09:22:46.579Z,1009.37
2018-10-19T09:23:46.570Z,1009.39
2018-10-19T09:24:46.561Z,1009.38
2018-10-19T09:25:46.548Z,1009.45
2018-10-19T09:26:46.537Z,1009.44
2018-10-19T09:27:46.523Z,1009.46
2018-10-19T09:28:46.515Z,1009.39
2018-10-19T09:29:46.503Z,1009.41
2018-10-19T09:30:46.490Z,1009.38
2018-10-19T09:31:46.485Z,1009.39
2018-10-19T09:32:46.472Z,1009.44
2018-10-19T09:33:46.459Z,1009.45
2018-10-19T09:34:46.454Z,1009.41
2018-10-19T09:35:46.500Z,1009.41
2018-10-19T09:36:46.567Z,1009.48
2018-10-19T09:37:46.423Z,1009.50
2018-10-19T09:38:46.410Z,1009.43
2018-10-19T09:39:46.402Z,1009.44
2018-10-19T09:40:46.425Z,1009.45
2018-10-19T09:41:46.372Z,1009.42
2018-10-19T09:42:46.361Z,1009.38
2018-10-19T09:43:46.351Z,1009.35
2018-10-19T09:44:46.341Z,1009.35
2018-10-19T09:45:46.329Z,1009.24
2018-10-19T09:46:46.319Z,1009.29
2018-10-19T09:47:46.309Z,1009.28
2018-10-19T09:48:46.297Z,1009.24
2018-10-19T09:49:46.286Z,1009.23
2018-10-19T09:50:46.275Z,1009.24
2018-10-19T09:51:46.263Z,1009.25
2018-10-19T09:52:46.260Z,1009.22
2018-10-19T09:53:46.243Z,1009.19
2018-10-19T09:54:46.234Z,1009.26
2018-10-19T09:55:46.222Z,1009.24
2018-10-19T09:56:46.209Z,1009.23
2018-10-19T09:57:46.202Z,1009.20
2018-10-19T09:58:46.189Z,1009.16
2018-10-19T09:59:46.177Z,1009.20
2018-10-19T10:00:46.169Z,1009.12
2018-10-19T10:01:46.157Z,1009.13
2018-10-19T10:02:46.147Z,1009.03
2018-10-19T10:03:46.135Z,1009.11
2018-10-19T10:04:46.124Z,1009.08
2018-10-19T10:05:46.115Z,1009.08
2018-10-19T10:06:46.102Z,1009.14
2018-10-19T10:07:46.117Z,1009.09
2018-10-19T10:08:46.080Z,1009.08
2018-10-19T10:09:46.069Z,1009.09
2018-10-19T10:10:46.061Z,1009.03
2018-10-19T10:11:46.048Z,1009.09
2018-10-19T10:12:46.037Z,1009.07
2018-10-19T10:13:46.026Z,1009.05
2018-10-19T10:14:46.097Z,1009.08
2018-10-19T10:15:46.085Z,1009.08
2018-10-19T10:16:45.995Z,1009.08
2018-10-19T10:17:45.984Z,1009.10
2018-10-19T10:18:45.975Z,1009.07
2018-10-19T10:19:45.963Z,1009.01
2018-10-19T10:20:45.951Z,1009.06
2018-10-19T10:21:45.940Z,1009.04
2018-10-19T10:22:45.939Z,1008.98
2018-10-19T10:23:45.919Z,1008.98
2018-10-19T10:24:45.959Z,1008.93
2018-10-19T10:25:45.896Z,1008.93
2018-10-19T10:26:45.886Z,1008.91
2018-10-19T10:27:45.875Z,1008.94
2018-10-19T10:28:45.865Z,1008.91
2018-10-19T10:29:45.853Z,1008.87
2018-10-19T10:30:45.844Z,1008.84
2018-10-19T10:31:45.839Z,1008.90
2018-10-19T10:32:45.823Z,1008.82
2018-10-19T10:33:45.810Z,1008.86
2018-10-19T10:34:45.797Z,1008.86
2018-10-19T10:35:45.799Z,1008.88
2018-10-19T10:36:45.778Z,1008.86
2018-10-19T10:37:45.767Z,1008.88
2018-10-19T10:38:45.855Z,1008.91
2018-10-19T10:39:45.744Z,1008.85
2018-10-19T10:40:45.734Z,1008.82
2018-10-19T10:41:45.724Z,1008.81
2018-10-19T10:42:45.713Z,1008.77
2018-10-19T10:43:45.704Z,1008.78
2018-10-19T10:44:45.690Z,1008.81
2018-10-19T10:45:45.687Z,1008.80
2018-10-19T10:46:45.711Z,1008.77
2018-10-19T10:47:45.662Z,1008.82
2018-10-19T10:48:45.650Z,1008.77
2018-10-19T10:49:45.638Z,1008.77
2018-10-19T10:50:45.630Z,1008.78
2018-10-19T10:51:45.619Z,1008.75
2018-10-19T10:52:45.606Z,1008.79
2018-10-19T10:53:45.596Z,1008.75
2018-10-19T10:54:45.589Z,1008.73
2018-10-19T10:55:45.572Z,1008.72
2018-10-19T10:56:45.565Z,1008.73
2018-10-19T10:57:45.551Z,1008.67
2018-10-19T10:58:45.540Z,1008.68
2018-10-19T10:59:45.530Z,1008.66
2018-10-19T11:00:45.517Z,1008.68
2018-10-19T11:01:45.506Z,1008.63
2018-10-19T11:02:45.496Z,1008.67
2018-10-19T11:03:45.484Z,1008.64
2018-10-19T11:04:45.475Z,1008.63
2018-10-19T11:05:45.463Z,1008.59
2018-10-19T11:06:45.454Z,1008.62
2018-10-19T11:07:45.448Z,1008.55
2018-10-19T11:08:45.431Z,1008.55
2018-10-19T11:09:45.422Z,1008.55
2018-10-19T11:10:45.410Z,1008.51
2018-10-19T11:11:45.400Z,1008.51
2018-10-19T11:12:45.387Z,1008.46
2018-10-19T11:13:45.376Z,1008.48
2018-10-19T11:14:45.367Z,1008.47
2018-10-19T11:15:45.355Z,1008.45
2018-10-19T11:16:45.343Z,1008.46
2018-10-19T11:17:45.337Z,1008.44
2018-10-19T11:18:45.322Z,1008.46
2018-10-19T11:19:45.310Z,1008.43
2018-10-19T11:20:45.300Z,1008.47
2018-10-19T11:21:45.291Z,1008.46
2018-10-19T11:22:45.278Z,1008.45
2018-10-19T11:23:45.270Z,1008.47
2018-10-19T11:24:45.258Z,1008.49
2018-10-19T11:25:45.246Z,1008.52
2018-10-19T11:26:45.235Z,1008.44
2018-10-19T11:27:45.224Z,1008.44
2018-10-19T11:28:45.214Z,1008.41
2018-10-19T11:29:45.202Z,1008.41
2018-10-19T11:30:45.292Z,1008.37
2018-10-19T11:31:45.182Z,1008.38
2018-10-19T11:32:45.170Z,1008.35
2018-10-19T11:33:45.159Z,1008.39
2018-10-19T11:34:45.150Z,1008.39
2018-10-19T11:35:45.137Z,1008.42
2018-10-19T11:36:45.127Z,1008.41
2018-10-19T11:37:45.252Z,1008.40
2018-10-19T11:38:45.106Z,1008.48
2018-10-19T11:39:45.095Z,1008.45
2018-10-19T11:40:45.084Z,1008.46
2018-10-19T11:41:45.074Z,1008.42
2018-10-19T11:42:45.060Z,1008.44
2018-10-19T11:43:45.051Z,1008.44
2018-10-19T11:44:45.042Z,1008.45
2018-10-19T11:45:45.028Z,1008.43
2018-10-19T11:46:45.020Z,1008.46
2018-10-19T11:47:45.009Z,1008.46
2018-10-19T11:48:45.052Z,1008.45
2018-10-19T11:49:44.987Z,1008.47
2018-10-19T11:50:44.976Z,1008.47
2018-10-19T11:51:44.964Z,1008.44
2018-10-19T11:52:44.957Z,1008.45
2018-10-19T11:53:44.942Z,1008.39
2018-10-19T11:54:44.932Z,1008.36
2018-10-19T11:55:44.924Z,1008.45
2018-10-19T11:56:44.912Z,1008.41
2018-10-19T11:57:44.900Z,1008.40
2018-10-19T11:58:44.889Z,1008.39
2018-10-19T11:59:44.880Z,1008.35
2018-10-19T12:00:44.868Z,1008.31
2018-10-19T12:01:44.857Z,1008.28
2018-10-19T12:02:44.846Z,1008.29
2018-10-19T12:03:44.891Z,1008.25
2018-10-19T12:04:44.825Z,1008.29
2018-10-19T12:05:44.812Z,1008.28